Terminal Aerodrome Forecast
Issued by NWS

Home | Current Version | Previous Version | Graphics & Text | Print | Product List | Glossary On
Versions: 1 2 3 4 5 6 7 8 9 10 11 12 13 14 15 16
000
FTUS43 KMPX 151732
TAFAXN
TAF
KAXN 151732Z 1518/1618 31016G22KT P6SM OVC012
      TEMPO 1518/1522 BKN020
     FM152200 32015G21KT P6SM BKN022
     FM160100 32012KT P6SM BKN022
     FM160600 VRB03KT P6SM SCT025
     FM161200 11006KT P6SM BKN200=

USA.gov is the U.S. government's official web portal to all federal, state and local government web resources and services.